sensor_id;sensor_type;location;lat;lon;timestamp;P1;durP1;ratioP1;P2;durP2;ratioP2
40088;SDS011;25793;55.706;13.186;2022-08-01T00:00:08;12.68;;;11.77;;
40088;SDS011;25793;55.706;13.186;2022-08-01T00:02:36;11.20;;;10.40;;
40088;SDS011;25793;55.706;13.186;2022-08-01T00:05:04;12.45;;;11.65;;
40088;SDS011;25793;55.706;13.186;2022-08-01T00:07:32;10.55;;;9.85;;
40088;SDS011;25793;55.706;13.186;2022-08-01T00:10:00;10.90;;;10.00;;
40088;SDS011;25793;55.706;13.186;2022-08-01T00:12:27;11.70;;;10.63;;
40088;SDS011;25793;55.706;13.186;2022-08-01T00:14:54;12.27;;;11.48;;
40088;SDS011;25793;55.706;13.186;2022-08-01T00:17:21;11.25;;;10.55;;
40088;SDS011;25793;55.706;13.186;2022-08-01T00:19:47;12.15;;;11.18;;
40088;SDS011;25793;55.706;13.186;2022-08-01T00:22:14;12.38;;;11.52;;
40088;SDS011;25793;55.706;13.186;2022-08-01T00:24:41;12.45;;;11.45;;
40088;SDS011;25793;55.706;13.186;2022-08-01T00:27:08;11.07;;;10.30;;
40088;SDS011;25793;55.706;13.186;2022-08-01T00:29:34;11.00;;;10.10;;
40088;SDS011;25793;55.706;13.186;2022-08-01T00:32:21;11.43;;;10.68;;
40088;SDS011;25793;55.706;13.186;2022-08-01T00:34:48;11.20;;;10.50;;
40088;SDS011;25793;55.706;13.186;2022-08-01T00:37:16;11.32;;;10.63;;
40088;SDS011;25793;55.706;13.186;2022-08-01T00:39:43;12.70;;;11.70;;
40088;SDS011;25793;55.706;13.186;2022-08-01T00:42:10;12.35;;;11.52;;
40088;SDS011;25793;55.706;13.186;2022-08-01T00:44:38;11.90;;;11.20;;
40088;SDS011;25793;55.706;13.186;2022-08-01T00:47:05;12.13;;;11.30;;
40088;SDS011;25793;55.706;13.186;2022-08-01T00:49:32;14.05;;;13.07;;
40088;SDS011;25793;55.706;13.186;2022-08-01T00:51:59;13.40;;;12.50;;
40088;SDS011;25793;55.706;13.186;2022-08-01T00:54:27;14.45;;;13.55;;
40088;SDS011;25793;55.706;13.186;2022-08-01T00:56:54;13.68;;;12.88;;
40088;SDS011;25793;55.706;13.186;2022-08-01T00:59:22;15.00;;;13.85;;
40088;SDS011;25793;55.706;13.186;2022-08-01T01:01:51;15.40;;;14.40;;
40088;SDS011;25793;55.706;13.186;2022-08-01T01:04:19;13.85;;;12.95;;
40088;SDS011;25793;55.706;13.186;2022-08-01T01:12:27;13.82;;;12.93;;
40088;SDS011;25793;55.706;13.186;2022-08-01T01:15:12;14.67;;;13.67;;
40088;SDS011;25793;55.706;13.186;2022-08-01T01:20:31;16.20;;;15.10;;
40088;SDS011;25793;55.706;13.186;2022-08-01T01:31:08;19.70;;;18.50;;
40088;SDS011;25793;55.706;13.186;2022-08-01T01:33:39;20.73;;;19.52;;
40088;SDS011;25793;55.706;13.186;2022-08-01T01:36:12;23.17;;;21.88;;
40088;SDS011;25793;55.706;13.186;2022-08-01T01:38:41;23.92;;;22.48;;
40088;SDS011;25793;55.706;13.186;2022-08-01T01:41:11;26.85;;;25.17;;
40088;SDS011;25793;55.706;13.186;2022-08-01T01:43:39;24.67;;;23.08;;
40088;SDS011;25793;55.706;13.186;2022-08-01T01:46:07;26.73;;;25.25;;
40088;SDS011;25793;55.706;13.186;2022-08-01T01:48:35;29.25;;;27.55;;
40088;SDS011;25793;55.706;13.186;2022-08-01T01:51:05;34.53;;;32.55;;
40088;SDS011;25793;55.706;13.186;2022-08-01T01:53:33;39.28;;;36.97;;
40088;SDS011;25793;55.706;13.186;2022-08-01T01:56:01;44.33;;;41.88;;
40088;SDS011;25793;55.706;13.186;2022-08-01T01:58:29;49.40;;;46.80;;
40088;SDS011;25793;55.706;13.186;2022-08-01T02:00:59;57.10;;;53.90;;
40088;SDS011;25793;55.706;13.186;2022-08-01T02:03:29;62.08;;;58.65;;
40088;SDS011;25793;55.706;13.186;2022-08-01T02:05:57;71.22;;;67.30;;
40088;SDS011;25793;55.706;13.186;2022-08-01T02:08:25;77.72;;;73.72;;
40088;SDS011;25793;55.706;13.186;2022-08-01T02:10:58;80.75;;;76.47;;
40088;SDS011;25793;55.706;13.186;2022-08-01T02:13:45;80.15;;;75.95;;
40088;SDS011;25793;55.706;13.186;2022-08-01T02:16:33;90.07;;;85.47;;
40088;SDS011;25793;55.706;13.186;2022-08-01T02:19:02;92.20;;;87.50;;
40088;SDS011;25793;55.706;13.186;2022-08-01T02:21:30;104.57;;;99.25;;
40088;SDS011;25793;55.706;13.186;2022-08-01T02:24:14;116.72;;;110.65;;
40088;SDS011;25793;55.706;13.186;2022-08-01T02:26:56;123.78;;;117.13;;
40088;SDS011;25793;55.706;13.186;2022-08-01T02:29:28;139.10;;;131.70;;
40088;SDS011;25793;55.706;13.186;2022-08-01T02:32:03;141.03;;;133.63;;
40088;SDS011;25793;55.706;13.186;2022-08-01T02:34:31;164.38;;;155.20;;
40088;SDS011;25793;55.706;13.186;2022-08-01T02:37:01;183.65;;;173.15;;
40088;SDS011;25793;55.706;13.186;2022-08-01T02:39:30;189.65;;;178.88;;
40088;SDS011;25793;55.706;13.186;2022-08-01T02:41:59;197.95;;;186.57;;
40088;SDS011;25793;55.706;13.186;2022-08-01T02:44:31;205.18;;;193.32;;
40088;SDS011;25793;55.706;13.186;2022-08-01T02:47:02;220.52;;;207.27;;
40088;SDS011;25793;55.706;13.186;2022-08-01T02:49:33;221.77;;;208.45;;
40088;SDS011;25793;55.706;13.186;2022-08-01T02:52:07;221.60;;;208.00;;
40088;SDS011;25793;55.706;13.186;2022-08-01T02:54:36;219.10;;;205.70;;
40088;SDS011;25793;55.706;13.186;2022-08-01T02:57:05;224.88;;;211.18;;
40088;SDS011;25793;55.706;13.186;2022-08-01T02:59:39;230.90;;;216.40;;
40088;SDS011;25793;55.706;13.186;2022-08-01T03:02:07;236.93;;;222.32;;
40088;SDS011;25793;55.706;13.186;2022-08-01T03:04:36;232.32;;;217.93;;
40088;SDS011;25793;55.706;13.186;2022-08-01T03:07:06;239.02;;;224.02;;
40088;SDS011;25793;55.706;13.186;2022-08-01T03:09:39;231.38;;;216.65;;
40088;SDS011;25793;55.706;13.186;2022-08-01T03:12:10;231.25;;;216.27;;
40088;SDS011;25793;55.706;13.186;2022-08-01T03:14:40;236.60;;;221.25;;
40088;SDS011;25793;55.706;13.186;2022-08-01T03:17:09;229.13;;;214.02;;
40088;SDS011;25793;55.706;13.186;2022-08-01T03:19:38;232.80;;;217.05;;
40088;SDS011;25793;55.706;13.186;2022-08-01T03:22:09;228.00;;;212.47;;
40088;SDS011;25793;55.706;13.186;2022-08-01T03:24:39;238.80;;;222.67;;
40088;SDS011;25793;55.706;13.186;2022-08-01T03:27:07;246.30;;;229.80;;
40088;SDS011;25793;55.706;13.186;2022-08-01T03:29:37;248.27;;;232.17;;
40088;SDS011;25793;55.706;13.186;2022-08-01T03:32:06;252.07;;;235.68;;
40088;SDS011;25793;55.706;13.186;2022-08-01T03:34:33;257.35;;;240.45;;
40088;SDS011;25793;55.706;13.186;2022-08-01T03:37:11;255.70;;;238.75;;
40088;SDS011;25793;55.706;13.186;2022-08-01T03:39:47;253.65;;;237.00;;
40088;SDS011;25793;55.706;13.186;2022-08-01T03:42:18;252.30;;;235.77;;
40088;SDS011;25793;55.706;13.186;2022-08-01T03:44:52;252.63;;;236.07;;
40088;SDS011;25793;55.706;13.186;2022-08-01T03:47:21;259.05;;;241.95;;
40088;SDS011;25793;55.706;13.186;2022-08-01T03:49:52;254.73;;;237.75;;
40088;SDS011;25793;55.706;13.186;2022-08-01T03:52:21;251.85;;;235.05;;
40088;SDS011;25793;55.706;13.186;2022-08-01T03:54:51;255.37;;;238.27;;
40088;SDS011;25793;55.706;13.186;2022-08-01T03:57:22;255.27;;;237.88;;
40088;SDS011;25793;55.706;13.186;2022-08-01T04:00:03;260.20;;;242.50;;
40088;SDS011;25793;55.706;13.186;2022-08-01T04:02:37;257.83;;;240.23;;
40088;SDS011;25793;55.706;13.186;2022-08-01T04:05:05;262.05;;;244.25;;
40088;SDS011;25793;55.706;13.186;2022-08-01T04:07:32;266.33;;;247.93;;
40088;SDS011;25793;55.706;13.186;2022-08-01T04:10:02;260.73;;;242.32;;
40088;SDS011;25793;55.706;13.186;2022-08-01T04:12:31;262.73;;;244.05;;
40088;SDS011;25793;55.706;13.186;2022-08-01T04:14:58;265.77;;;246.98;;
40088;SDS011;25793;55.706;13.186;2022-08-01T04:17:25;254.32;;;235.75;;
40088;SDS011;25793;55.706;13.186;2022-08-01T04:19:52;256.58;;;238.20;;
40088;SDS011;25793;55.706;13.186;2022-08-01T04:22:18;258.85;;;240.25;;
40088;SDS011;25793;55.706;13.186;2022-08-01T04:24:47;262.23;;;243.50;;
40088;SDS011;25793;55.706;13.186;2022-08-01T04:27:22;259.40;;;240.93;;
40088;SDS011;25793;55.706;13.186;2022-08-01T04:30:15;246.75;;;228.68;;
40088;SDS011;25793;55.706;13.186;2022-08-01T04:32:46;256.42;;;237.93;;
40088;SDS011;25793;55.706;13.186;2022-08-01T04:35:14;255.70;;;237.10;;
40088;SDS011;25793;55.706;13.186;2022-08-01T04:38:03;250.80;;;232.95;;
40088;SDS011;25793;55.706;13.186;2022-08-01T04:40:30;249.55;;;231.90;;
40088;SDS011;25793;55.706;13.186;2022-08-01T04:42:58;239.45;;;222.68;;
40088;SDS011;25793;55.706;13.186;2022-08-01T04:45:26;253.40;;;236.00;;
40088;SDS011;25793;55.706;13.186;2022-08-01T04:47:53;253.20;;;235.65;;
40088;SDS011;25793;55.706;13.186;2022-08-01T04:50:21;256.52;;;238.52;;
40088;SDS011;25793;55.706;13.186;2022-08-01T04:52:48;255.17;;;237.17;;
40088;SDS011;25793;55.706;13.186;2022-08-01T04:55:15;251.05;;;233.02;;
40088;SDS011;25793;55.706;13.186;2022-08-01T04:57:44;248.05;;;230.25;;
40088;SDS011;25793;55.706;13.186;2022-08-01T05:00:13;249.32;;;231.63;;
40088;SDS011;25793;55.706;13.186;2022-08-01T05:02:40;253.85;;;235.48;;
40088;SDS011;25793;55.706;13.186;2022-08-01T05:05:07;254.43;;;236.13;;
40088;SDS011;25793;55.706;13.186;2022-08-01T05:07:34;257.77;;;239.20;;
40088;SDS011;25793;55.706;13.186;2022-08-01T05:10:11;256.50;;;238.20;;
40088;SDS011;25793;55.706;13.186;2022-08-01T05:12:38;251.40;;;233.20;;
40088;SDS011;25793;55.706;13.186;2022-08-01T05:15:04;247.47;;;229.30;;
40088;SDS011;25793;55.706;13.186;2022-08-01T05:17:40;241.48;;;223.68;;
40088;SDS011;25793;55.706;13.186;2022-08-01T05:20:08;245.32;;;227.43;;
40088;SDS011;25793;55.706;13.186;2022-08-01T05:22:36;246.13;;;227.97;;
40088;SDS011;25793;55.706;13.186;2022-08-01T05:25:03;242.63;;;224.47;;
40088;SDS011;25793;55.706;13.186;2022-08-01T05:27:43;234.75;;;217.43;;
40088;SDS011;25793;55.706;13.186;2022-08-01T05:30:10;243.63;;;226.00;;
40088;SDS011;25793;55.706;13.186;2022-08-01T05:32:37;238.27;;;220.90;;
40088;SDS011;25793;55.706;13.186;2022-08-01T05:35:04;242.77;;;225.05;;
40088;SDS011;25793;55.706;13.186;2022-08-01T05:37:31;240.13;;;222.52;;
40088;SDS011;25793;55.706;13.186;2022-08-01T05:39:58;252.20;;;233.87;;
40088;SDS011;25793;55.706;13.186;2022-08-01T05:42:25;244.13;;;226.52;;
40088;SDS011;25793;55.706;13.186;2022-08-01T05:44:52;250.52;;;232.35;;
40088;SDS011;25793;55.706;13.186;2022-08-01T05:47:19;249.90;;;231.80;;
40088;SDS011;25793;55.706;13.186;2022-08-01T05:49:48;256.45;;;238.27;;
40088;SDS011;25793;55.706;13.186;2022-08-01T05:52:16;257.98;;;239.00;;
40088;SDS011;25793;55.706;13.186;2022-08-01T05:54:45;252.32;;;233.73;;
40088;SDS011;25793;55.706;13.186;2022-08-01T05:57:11;260.45;;;241.35;;
40088;SDS011;25793;55.706;13.186;2022-08-01T05:59:40;240.73;;;222.83;;
40088;SDS011;25793;55.706;13.186;2022-08-01T06:02:07;247.77;;;229.35;;
40088;SDS011;25793;55.706;13.186;2022-08-01T06:04:35;263.77;;;244.63;;
40088;SDS011;25793;55.706;13.186;2022-08-01T06:07:01;262.30;;;242.60;;
40088;SDS011;25793;55.706;13.186;2022-08-01T06:09:28;269.55;;;249.85;;
40088;SDS011;25793;55.706;13.186;2022-08-01T06:11:56;265.93;;;246.33;;
40088;SDS011;25793;55.706;13.186;2022-08-01T06:14:24;258.97;;;239.77;;
40088;SDS011;25793;55.706;13.186;2022-08-01T06:16:50;263.43;;;244.07;;
40088;SDS011;25793;55.706;13.186;2022-08-01T06:19:17;254.35;;;235.80;;
40088;SDS011;25793;55.706;13.186;2022-08-01T06:21:44;254.43;;;236.00;;
40088;SDS011;25793;55.706;13.186;2022-08-01T06:24:10;253.95;;;235.85;;
40088;SDS011;25793;55.706;13.186;2022-08-01T06:26:38;251.73;;;233.93;;
40088;SDS011;25793;55.706;13.186;2022-08-01T06:29:04;249.30;;;231.48;;
40088;SDS011;25793;55.706;13.186;2022-08-01T06:31:31;236.50;;;219.40;;
40088;SDS011;25793;55.706;13.186;2022-08-01T06:33:59;240.05;;;222.90;;
40088;SDS011;25793;55.706;13.186;2022-08-01T06:36:26;253.57;;;235.85;;
40088;SDS011;25793;55.706;13.186;2022-08-01T06:38:53;241.23;;;224.30;;
40088;SDS011;25793;55.706;13.186;2022-08-01T06:41:19;251.00;;;233.60;;
40088;SDS011;25793;55.706;13.186;2022-08-01T06:43:46;247.60;;;230.30;;
40088;SDS011;25793;55.706;13.186;2022-08-01T06:46:13;237.75;;;221.20;;
40088;SDS011;25793;55.706;13.186;2022-08-01T06:48:42;235.20;;;219.00;;
40088;SDS011;25793;55.706;13.186;2022-08-01T06:51:09;243.13;;;226.33;;
40088;SDS011;25793;55.706;13.186;2022-08-01T06:53:36;243.88;;;227.48;;
40088;SDS011;25793;55.706;13.186;2022-08-01T06:56:04;246.57;;;229.85;;
40088;SDS011;25793;55.706;13.186;2022-08-01T06:58:31;221.20;;;206.80;;
40088;SDS011;25793;55.706;13.186;2022-08-01T07:01:00;217.10;;;202.90;;
40088;SDS011;25793;55.706;13.186;2022-08-01T07:03:30;207.05;;;193.32;;
40088;SDS011;25793;55.706;13.186;2022-08-01T07:06:17;182.82;;;171.02;;
40088;SDS011;25793;55.706;13.186;2022-08-01T07:08:44;195.67;;;183.07;;
40088;SDS011;25793;55.706;13.186;2022-08-01T07:11:11;173.10;;;162.00;;
40088;SDS011;25793;55.706;13.186;2022-08-01T07:13:37;144.90;;;136.40;;
40088;SDS011;25793;55.706;13.186;2022-08-01T07:16:11;158.25;;;148.52;;
40088;SDS011;25793;55.706;13.186;2022-08-01T07:18:38;177.18;;;165.90;;
40088;SDS011;25793;55.706;13.186;2022-08-01T07:21:05;143.88;;;135.48;;
40088;SDS011;25793;55.706;13.186;2022-08-01T07:23:42;153.35;;;144.15;;
40088;SDS011;25793;55.706;13.186;2022-08-01T07:26:11;184.73;;;172.82;;
40088;SDS011;25793;55.706;13.186;2022-08-01T07:28:39;193.30;;;180.60;;
40088;SDS011;25793;55.706;13.186;2022-08-01T07:31:09;192.33;;;179.60;;
40088;SDS011;25793;55.706;13.186;2022-08-01T07:33:36;179.20;;;167.52;;
40088;SDS011;25793;55.706;13.186;2022-08-01T07:36:17;158.98;;;149.32;;
40088;SDS011;25793;55.706;13.186;2022-08-01T07:38:45;153.88;;;144.52;;
40088;SDS011;25793;55.706;13.186;2022-08-01T07:41:12;159.20;;;149.50;;
40088;SDS011;25793;55.706;13.186;2022-08-01T07:43:40;190.13;;;177.77;;
40088;SDS011;25793;55.706;13.186;2022-08-01T07:46:18;196.50;;;183.90;;
40088;SDS011;25793;55.706;13.186;2022-08-01T07:48:45;213.38;;;199.27;;
40088;SDS011;25793;55.706;13.186;2022-08-01T07:51:11;217.43;;;203.02;;
40088;SDS011;25793;55.706;13.186;2022-08-01T07:53:38;219.40;;;204.55;;
40088;SDS011;25793;55.706;13.186;2022-08-01T07:56:05;204.43;;;190.82;;
40088;SDS011;25793;55.706;13.186;2022-08-01T07:58:32;189.80;;;177.30;;
40088;SDS011;25793;55.706;13.186;2022-08-01T08:00:59;202.00;;;188.48;;
40088;SDS011;25793;55.706;13.186;2022-08-01T08:03:26;174.57;;;163.30;;
40088;SDS011;25793;55.706;13.186;2022-08-01T08:05:53;188.27;;;175.88;;
40088;SDS011;25793;55.706;13.186;2022-08-01T08:08:28;207.32;;;193.75;;
40088;SDS011;25793;55.706;13.186;2022-08-01T08:10:55;209.10;;;195.53;;
40088;SDS011;25793;55.706;13.186;2022-08-01T08:13:22;203.50;;;189.93;;
40088;SDS011;25793;55.706;13.186;2022-08-01T08:15:48;202.48;;;189.32;;
40088;SDS011;25793;55.706;13.186;2022-08-01T08:18:18;181.15;;;169.13;;
40088;SDS011;25793;55.706;13.186;2022-08-01T08:20:45;195.80;;;182.95;;
40088;SDS011;25793;55.706;13.186;2022-08-01T08:23:15;201.88;;;188.23;;
40088;SDS011;25793;55.706;13.186;2022-08-01T08:26:09;177.80;;;166.27;;
40088;SDS011;25793;55.706;13.186;2022-08-01T08:28:36;160.50;;;150.57;;
40088;SDS011;25793;55.706;13.186;2022-08-01T08:31:05;168.85;;;157.75;;
40088;SDS011;25793;55.706;13.186;2022-08-01T08:33:32;167.77;;;156.97;;
40088;SDS011;25793;55.706;13.186;2022-08-01T08:35:59;158.07;;;147.82;;
40088;SDS011;25793;55.706;13.186;2022-08-01T08:38:27;164.95;;;154.35;;
40088;SDS011;25793;55.706;13.186;2022-08-01T08:40:55;156.00;;;146.20;;
40088;SDS011;25793;55.706;13.186;2022-08-01T08:43:24;157.52;;;147.73;;
40088;SDS011;25793;55.706;13.186;2022-08-01T08:45:52;166.48;;;156.02;;
40088;SDS011;25793;55.706;13.186;2022-08-01T08:48:25;178.07;;;166.90;;
40088;SDS011;25793;55.706;13.186;2022-08-01T08:50:53;179.55;;;168.05;;
40088;SDS011;25793;55.706;13.186;2022-08-01T08:53:24;195.50;;;182.70;;
40088;SDS011;25793;55.706;13.186;2022-08-01T08:56:00;198.07;;;185.32;;
40088;SDS011;25793;55.706;13.186;2022-08-01T08:58:28;202.68;;;189.77;;
40088;SDS011;25793;55.706;13.186;2022-08-01T09:01:00;200.15;;;187.02;;
40088;SDS011;25793;55.706;13.186;2022-08-01T09:03:27;199.98;;;186.82;;
40088;SDS011;25793;55.706;13.186;2022-08-01T09:05:54;220.80;;;206.32;;
40088;SDS011;25793;55.706;13.186;2022-08-01T09:08:20;255.10;;;238.10;;
40088;SDS011;25793;55.706;13.186;2022-08-01T09:10:49;292.45;;;272.70;;
40088;SDS011;25793;55.706;13.186;2022-08-01T09:13:18;294.38;;;274.00;;
40088;SDS011;25793;55.706;13.186;2022-08-01T09:16:03;294.30;;;273.60;;
40088;SDS011;25793;55.706;13.186;2022-08-01T09:18:32;292.80;;;272.23;;
40088;SDS011;25793;55.706;13.186;2022-08-01T09:21:20;249.02;;;230.68;;
40088;SDS011;25793;55.706;13.186;2022-08-01T09:23:50;254.13;;;235.57;;
40088;SDS011;25793;55.706;13.186;2022-08-01T09:26:21;261.40;;;242.35;;
40088;SDS011;25793;55.706;13.186;2022-08-01T09:28:56;251.85;;;233.50;;
40088;SDS011;25793;55.706;13.186;2022-08-01T09:31:24;287.00;;;266.63;;
40088;SDS011;25793;55.706;13.186;2022-08-01T09:34:04;267.45;;;247.90;;
40088;SDS011;25793;55.706;13.186;2022-08-01T09:36:45;289.23;;;268.08;;
40088;SDS011;25793;55.706;13.186;2022-08-01T09:39:22;234.80;;;216.77;;
40088;SDS011;25793;55.706;13.186;2022-08-01T09:41:50;259.70;;;240.03;;
40088;SDS011;25793;55.706;13.186;2022-08-01T09:44:26;315.88;;;293.15;;
40088;SDS011;25793;55.706;13.186;2022-08-01T09:47:08;254.68;;;235.75;;
40088;SDS011;25793;55.706;13.186;2022-08-01T09:49:36;311.88;;;289.55;;
40088;SDS011;25793;55.706;13.186;2022-08-01T09:52:18;303.50;;;281.27;;
40088;SDS011;25793;55.706;13.186;2022-08-01T09:54:52;298.67;;;276.70;;
40088;SDS011;25793;55.706;13.186;2022-08-01T09:57:23;288.65;;;267.10;;
40088;SDS011;25793;55.706;13.186;2022-08-01T09:59:51;265.17;;;245.38;;
40088;SDS011;25793;55.706;13.186;2022-08-01T10:02:35;273.88;;;253.00;;
40088;SDS011;25793;55.706;13.186;2022-08-01T10:05:04;298.38;;;276.95;;
40088;SDS011;25793;55.706;13.186;2022-08-01T10:07:34;260.48;;;241.18;;
40088;SDS011;25793;55.706;13.186;2022-08-01T10:10:10;234.00;;;216.10;;
40088;SDS011;25793;55.706;13.186;2022-08-01T10:12:40;279.27;;;258.92;;
40088;SDS011;25793;55.706;13.186;2022-08-01T10:15:11;297.63;;;276.02;;
40088;SDS011;25793;55.706;13.186;2022-08-01T10:17:46;299.83;;;277.83;;
40088;SDS011;25793;55.706;13.186;2022-08-01T10:20:20;292.42;;;271.15;;
40088;SDS011;25793;55.706;13.186;2022-08-01T10:23:00;301.75;;;279.92;;
40088;SDS011;25793;55.706;13.186;2022-08-01T10:25:34;283.58;;;263.42;;
40088;SDS011;25793;55.706;13.186;2022-08-01T10:28:15;299.07;;;278.57;;
40088;SDS011;25793;55.706;13.186;2022-08-01T10:30:49;249.65;;;231.75;;
40088;SDS011;25793;55.706;13.186;2022-08-01T10:33:21;273.53;;;254.03;;
40088;SDS011;25793;55.706;13.186;2022-08-01T10:36:08;292.50;;;271.80;;
40088;SDS011;25793;55.706;13.186;2022-08-01T10:38:36;278.17;;;257.75;;
40088;SDS011;25793;55.706;13.186;2022-08-01T10:41:04;284.40;;;263.90;;
40088;SDS011;25793;55.706;13.186;2022-08-01T10:43:34;302.93;;;281.17;;
40088;SDS011;25793;55.706;13.186;2022-08-01T10:46:02;261.90;;;242.55;;
40088;SDS011;25793;55.706;13.186;2022-08-01T10:51:40;308.10;;;286.33;;
40088;SDS011;25793;55.706;13.186;2022-08-01T10:54:18;270.65;;;251.18;;
40088;SDS011;25793;55.706;13.186;2022-08-01T10:59:20;279.42;;;259.88;;
40088;SDS011;25793;55.706;13.186;2022-08-01T11:02:08;240.20;;;223.02;;
40088;SDS011;25793;55.706;13.186;2022-08-01T11:07:47;288.58;;;269.40;;
40088;SDS011;25793;55.706;13.186;2022-08-01T11:10:51;276.55;;;257.80;;
40088;SDS011;25793;55.706;13.186;2022-08-01T11:13:10;272.75;;;254.18;;
40088;SDS011;25793;55.706;13.186;2022-08-01T11:15:39;275.92;;;257.05;;
40088;SDS011;25793;55.706;13.186;2022-08-01T11:18:29;258.63;;;239.98;;
40088;SDS011;25793;55.706;13.186;2022-08-01T11:20:58;250.30;;;232.80;;
40088;SDS011;25793;55.706;13.186;2022-08-01T11:23:47;294.23;;;274.15;;
40088;SDS011;25793;55.706;13.186;2022-08-01T11:26:15;272.65;;;253.23;;
40088;SDS011;25793;55.706;13.186;2022-08-01T11:31:47;308.50;;;286.30;;
40088;SDS011;25793;55.706;13.186;2022-08-01T11:34:13;307.63;;;284.92;;
40088;SDS011;25793;55.706;13.186;2022-08-01T11:36:40;282.27;;;261.35;;
40088;SDS011;25793;55.706;13.186;2022-08-01T11:39:28;292.90;;;271.23;;
40088;SDS011;25793;55.706;13.186;2022-08-01T11:41:57;294.67;;;272.70;;
40088;SDS011;25793;55.706;13.186;2022-08-01T11:44:47;269.67;;;249.37;;
40088;SDS011;25793;55.706;13.186;2022-08-01T11:47:16;281.45;;;260.15;;
40088;SDS011;25793;55.706;13.186;2022-08-01T11:49:47;288.85;;;266.92;;
40088;SDS011;25793;55.706;13.186;2022-08-01T11:57:28;279.80;;;258.92;;
40088;SDS011;25793;55.706;13.186;2022-08-01T12:00:06;274.57;;;254.23;;
40088;SDS011;25793;55.706;13.186;2022-08-01T12:02:43;277.92;;;257.27;;
40088;SDS011;25793;55.706;13.186;2022-08-01T12:05:12;274.40;;;254.02;;
40088;SDS011;25793;55.706;13.186;2022-08-01T12:07:42;295.38;;;273.52;;
40088;SDS011;25793;55.706;13.186;2022-08-01T12:12:42;293.27;;;271.63;;
40088;SDS011;25793;55.706;13.186;2022-08-01T12:15:14;287.70;;;266.67;;
40088;SDS011;25793;55.706;13.186;2022-08-01T12:17:49;263.83;;;245.40;;
40088;SDS011;25793;55.706;13.186;2022-08-01T12:20:26;233.77;;;217.75;;
40088;SDS011;25793;55.706;13.186;2022-08-01T12:22:57;226.23;;;211.48;;
40088;SDS011;25793;55.706;13.186;2022-08-01T12:25:35;205.33;;;192.20;;
40088;SDS011;25793;55.706;13.186;2022-08-01T12:28:03;198.03;;;185.27;;
40088;SDS011;25793;55.706;13.186;2022-08-01T12:30:32;217.67;;;203.67;;
40088;SDS011;25793;55.706;13.186;2022-08-01T12:33:06;234.43;;;219.70;;
40088;SDS011;25793;55.706;13.186;2022-08-01T12:35:38;159.85;;;149.75;;
40088;SDS011;25793;55.706;13.186;2022-08-01T12:38:16;133.57;;;125.50;;
40088;SDS011;25793;55.706;13.186;2022-08-01T12:40:46;119.38;;;112.28;;
40088;SDS011;25793;55.706;13.186;2022-08-01T12:43:19;109.18;;;102.22;;
40088;SDS011;25793;55.706;13.186;2022-08-01T12:45:55;80.60;;;75.30;;
40088;SDS011;25793;55.706;13.186;2022-08-01T12:48:24;62.85;;;58.65;;
40088;SDS011;25793;55.706;13.186;2022-08-01T12:50:52;78.72;;;73.72;;
40088;SDS011;25793;55.706;13.186;2022-08-01T12:53:20;71.38;;;66.55;;
40088;SDS011;25793;55.706;13.186;2022-08-01T12:55:51;29.15;;;26.65;;
40088;SDS011;25793;55.706;13.186;2022-08-01T12:58:31;42.40;;;39.35;;
40088;SDS011;25793;55.706;13.186;2022-08-01T13:01:08;45.42;;;42.33;;
40088;SDS011;25793;55.706;13.186;2022-08-01T13:03:36;38.00;;;35.30;;
40088;SDS011;25793;55.706;13.186;2022-08-01T13:06:09;35.90;;;33.40;;
40088;SDS011;25793;55.706;13.186;2022-08-01T13:08:42;19.58;;;17.65;;
40088;SDS011;25793;55.706;13.186;2022-08-01T13:11:10;17.87;;;16.23;;
40088;SDS011;25793;55.706;13.186;2022-08-01T13:13:45;30.05;;;27.58;;
40088;SDS011;25793;55.706;13.186;2022-08-01T13:16:14;11.65;;;8.90;;
40088;SDS011;25793;55.706;13.186;2022-08-01T13:19:05;8.88;;;3.83;;
40088;SDS011;25793;55.706;13.186;2022-08-01T13:21:32;5.90;;;2.50;;
40088;SDS011;25793;55.706;13.186;2022-08-01T13:24:26;9.25;;;2.40;;
40088;SDS011;25793;55.706;13.186;2022-08-01T13:26:57;9.80;;;2.72;;
40088;SDS011;25793;55.706;13.186;2022-08-01T13:29:30;9.02;;;3.20;;
40088;SDS011;25793;55.706;13.186;2022-08-01T13:31:58;8.52;;;3.10;;
40088;SDS011;25793;55.706;13.186;2022-08-01T13:34:30;10.30;;;3.28;;
40088;SDS011;25793;55.706;13.186;2022-08-01T13:36:58;11.95;;;3.40;;
40088;SDS011;25793;55.706;13.186;2022-08-01T13:39:33;8.18;;;3.15;;
40088;SDS011;25793;55.706;13.186;2022-08-01T13:42:14;9.52;;;2.95;;
40088;SDS011;25793;55.706;13.186;2022-08-01T13:44:44;12.38;;;3.05;;
40088;SDS011;25793;55.706;13.186;2022-08-01T13:47:11;11.15;;;2.75;;
40088;SDS011;25793;55.706;13.186;2022-08-01T13:49:42;5.63;;;2.20;;
40088;SDS011;25793;55.706;13.186;2022-08-01T13:52:09;8.77;;;2.63;;
40088;SDS011;25793;55.706;13.186;2022-08-01T13:54:36;8.07;;;3.05;;
40088;SDS011;25793;55.706;13.186;2022-08-01T13:57:03;9.38;;;3.00;;
40088;SDS011;25793;55.706;13.186;2022-08-01T13:59:30;7.97;;;3.30;;
40088;SDS011;25793;55.706;13.186;2022-08-01T14:01:57;8.68;;;2.90;;
40088;SDS011;25793;55.706;13.186;2022-08-01T14:04:23;8.68;;;2.95;;
40088;SDS011;25793;55.706;13.186;2022-08-01T14:06:50;8.13;;;3.03;;
40088;SDS011;25793;55.706;13.186;2022-08-01T14:09:17;11.35;;;3.17;;
40088;SDS011;25793;55.706;13.186;2022-08-01T14:11:49;15.52;;;3.30;;
40088;SDS011;25793;55.706;13.186;2022-08-01T14:14:16;10.52;;;3.13;;
40088;SDS011;25793;55.706;13.186;2022-08-01T14:16:43;10.10;;;2.92;;
40088;SDS011;25793;55.706;13.186;2022-08-01T14:19:12;9.02;;;2.90;;
40088;SDS011;25793;55.706;13.186;2022-08-01T14:21:42;10.33;;;3.03;;
40088;SDS011;25793;55.706;13.186;2022-08-01T14:24:08;9.80;;;3.10;;
40088;SDS011;25793;55.706;13.186;2022-08-01T14:26:35;8.20;;;2.77;;
40088;SDS011;25793;55.706;13.186;2022-08-01T14:29:02;8.70;;;3.17;;
40088;SDS011;25793;55.706;13.186;2022-08-01T14:31:29;7.32;;;2.78;;
40088;SDS011;25793;55.706;13.186;2022-08-01T14:33:59;6.63;;;2.60;;
40088;SDS011;25793;55.706;13.186;2022-08-01T14:36:29;8.43;;;2.63;;
40088;SDS011;25793;55.706;13.186;2022-08-01T14:39:03;7.87;;;2.67;;
40088;SDS011;25793;55.706;13.186;2022-08-01T14:41:31;6.90;;;2.42;;
40088;SDS011;25793;55.706;13.186;2022-08-01T14:43:58;9.15;;;2.83;;
40088;SDS011;25793;55.706;13.186;2022-08-01T14:46:26;8.75;;;3.05;;
40088;SDS011;25793;55.706;13.186;2022-08-01T14:48:52;8.10;;;2.78;;